Terminal Aerodrome Forecast
Issued by NWS

Home | Current Version | Previous Version | Text Only | Print | Product List | Glossary On
Versions: 1 2 3 4 5 6 7 8 9 10 11 12 13 14 15 16 17 18 19 20 21
429
FTUS41 KILN 042000 AAA
TAFLCK
TAF AMD
KLCK 042000Z 0420/0518 12009KT P6SM VCSH SCT028 OVC060
     FM042300 12007KT 4SM -RA BR OVC025
     FM050100 14006KT 4SM -RA BR OVC012
     FM050300 16006KT 4SM -RASN BR OVC006
     FM050500 28009KT P6SM OVC006
     FM051400 25003KT P6SM BKN010=

USA.gov is the U.S. government's official web portal to all federal, state and local government web resources and services.